sensor_id;sensor_type;location;lat;lon;timestamp;P1;durP1;ratioP1;P2;durP2;ratioP2
15331;SDS011;7766;51.534;6.722;2024-02-26T00:01:39;2.93;;;1.80;;
15331;SDS011;7766;51.534;6.722;2024-02-26T00:04:05;2.43;;;1.60;;
15331;SDS011;7766;51.534;6.722;2024-02-26T00:06:31;3.00;;;1.77;;
15331;SDS011;7766;51.534;6.722;2024-02-26T00:08:57;1.63;;;1.50;;
15331;SDS011;7766;51.534;6.722;2024-02-26T00:11:23;3.33;;;1.80;;
15331;SDS011;7766;51.534;6.722;2024-02-26T00:13:48;3.67;;;2.00;;
15331;SDS011;7766;51.534;6.722;2024-02-26T00:16:14;3.13;;;1.83;;
15331;SDS011;7766;51.534;6.722;2024-02-26T00:18:40;2.40;;;1.57;;
15331;SDS011;7766;51.534;6.722;2024-02-26T00:21:06;2.50;;;1.80;;
15331;SDS011;7766;51.534;6.722;2024-02-26T00:23:32;3.43;;;1.60;;
15331;SDS011;7766;51.534;6.722;2024-02-26T00:25:58;2.43;;;1.80;;
15331;SDS011;7766;51.534;6.722;2024-02-26T00:28:24;3.13;;;1.70;;
15331;SDS011;7766;51.534;6.722;2024-02-26T00:30:50;2.90;;;1.40;;
15331;SDS011;7766;51.534;6.722;2024-02-26T00:33:20;2.57;;;1.70;;
15331;SDS011;7766;51.534;6.722;2024-02-26T00:35:46;1.70;;;1.50;;
15331;SDS011;7766;51.534;6.722;2024-02-26T00:38:12;2.07;;;1.67;;
15331;SDS011;7766;51.534;6.722;2024-02-26T00:40:38;2.37;;;1.67;;
15331;SDS011;7766;51.534;6.722;2024-02-26T00:43:05;2.27;;;1.40;;
15331;SDS011;7766;51.534;6.722;2024-02-26T00:45:31;2.90;;;1.83;;
15331;SDS011;7766;51.534;6.722;2024-02-26T00:47:58;3.47;;;2.13;;
15331;SDS011;7766;51.534;6.722;2024-02-26T00:50:26;3.50;;;1.63;;
15331;SDS011;7766;51.534;6.722;2024-02-26T00:52:51;2.00;;;1.77;;
15331;SDS011;7766;51.534;6.722;2024-02-26T00:55:18;1.57;;;1.47;;
15331;SDS011;7766;51.534;6.722;2024-02-26T00:57:43;13.10;;;8.50;;
15331;SDS011;7766;51.534;6.722;2024-02-26T01:00:10;10.53;;;6.37;;
15331;SDS011;7766;51.534;6.722;2024-02-26T01:02:36;3.43;;;1.67;;
15331;SDS011;7766;51.534;6.722;2024-02-26T01:05:03;2.63;;;1.77;;
15331;SDS011;7766;51.534;6.722;2024-02-26T01:07:31;2.47;;;1.70;;
15331;SDS011;7766;51.534;6.722;2024-02-26T01:10:02;2.10;;;1.40;;
15331;SDS011;7766;51.534;6.722;2024-02-26T01:12:28;4.87;;;1.60;;
15331;SDS011;7766;51.534;6.722;2024-02-26T01:14:53;2.27;;;1.50;;
15331;SDS011;7766;51.534;6.722;2024-02-26T01:17:19;3.00;;;1.90;;
15331;SDS011;7766;51.534;6.722;2024-02-26T01:19:45;2.33;;;1.80;;
15331;SDS011;7766;51.534;6.722;2024-02-26T01:22:11;2.80;;;1.70;;
15331;SDS011;7766;51.534;6.722;2024-02-26T01:24:37;2.50;;;1.50;;
15331;SDS011;7766;51.534;6.722;2024-02-26T01:27:03;2.03;;;1.73;;
15331;SDS011;7766;51.534;6.722;2024-02-26T01:29:29;2.40;;;1.57;;
15331;SDS011;7766;51.534;6.722;2024-02-26T01:31:55;3.13;;;1.60;;
15331;SDS011;7766;51.534;6.722;2024-02-26T01:34:21;5.00;;;2.57;;
15331;SDS011;7766;51.534;6.722;2024-02-26T01:36:47;3.63;;;2.30;;
15331;SDS011;7766;51.534;6.722;2024-02-26T01:39:13;3.23;;;1.90;;
15331;SDS011;7766;51.534;6.722;2024-02-26T01:41:39;2.10;;;1.77;;
15331;SDS011;7766;51.534;6.722;2024-02-26T01:44:06;1.90;;;1.67;;
15331;SDS011;7766;51.534;6.722;2024-02-26T01:46:32;3.40;;;2.03;;
15331;SDS011;7766;51.534;6.722;2024-02-26T01:48:59;3.33;;;1.90;;
15331;SDS011;7766;51.534;6.722;2024-02-26T01:51:26;2.23;;;1.47;;
15331;SDS011;7766;51.534;6.722;2024-02-26T01:53:53;3.07;;;2.40;;
15331;SDS011;7766;51.534;6.722;2024-02-26T01:56:19;2.33;;;1.63;;
15331;SDS011;7766;51.534;6.722;2024-02-26T01:58:45;3.33;;;2.00;;
15331;SDS011;7766;51.534;6.722;2024-02-26T02:01:11;3.10;;;1.57;;
15331;SDS011;7766;51.534;6.722;2024-02-26T02:03:38;3.00;;;2.20;;
15331;SDS011;7766;51.534;6.722;2024-02-26T02:06:04;2.30;;;1.83;;
15331;SDS011;7766;51.534;6.722;2024-02-26T02:08:30;2.50;;;2.07;;
15331;SDS011;7766;51.534;6.722;2024-02-26T02:10:56;2.23;;;2.00;;
15331;SDS011;7766;51.534;6.722;2024-02-26T02:13:22;2.30;;;2.00;;
15331;SDS011;7766;51.534;6.722;2024-02-26T02:15:48;2.30;;;1.70;;
15331;SDS011;7766;51.534;6.722;2024-02-26T02:18:14;3.13;;;1.70;;
15331;SDS011;7766;51.534;6.722;2024-02-26T02:20:40;2.87;;;1.90;;
15331;SDS011;7766;51.534;6.722;2024-02-26T02:23:06;2.47;;;2.00;;
15331;SDS011;7766;51.534;6.722;2024-02-26T02:25:32;1.77;;;1.60;;
15331;SDS011;7766;51.534;6.722;2024-02-26T02:27:57;2.53;;;1.63;;
15331;SDS011;7766;51.534;6.722;2024-02-26T02:30:24;2.10;;;1.50;;
15331;SDS011;7766;51.534;6.722;2024-02-26T02:32:50;3.17;;;1.90;;
15331;SDS011;7766;51.534;6.722;2024-02-26T02:35:17;3.13;;;1.70;;
15331;SDS011;7766;51.534;6.722;2024-02-26T02:37:43;1.53;;;1.43;;
15331;SDS011;7766;51.534;6.722;2024-02-26T02:40:09;2.00;;;1.80;;
15331;SDS011;7766;51.534;6.722;2024-02-26T02:42:35;1.93;;;1.67;;
15331;SDS011;7766;51.534;6.722;2024-02-26T02:45:00;3.13;;;1.90;;
15331;SDS011;7766;51.534;6.722;2024-02-26T02:47:26;2.43;;;1.73;;
15331;SDS011;7766;51.534;6.722;2024-02-26T02:49:51;2.47;;;1.53;;
15331;SDS011;7766;51.534;6.722;2024-02-26T02:52:17;3.07;;;1.87;;
15331;SDS011;7766;51.534;6.722;2024-02-26T02:54:42;3.93;;;1.70;;
15331;SDS011;7766;51.534;6.722;2024-02-26T02:57:08;2.50;;;1.50;;
15331;SDS011;7766;51.534;6.722;2024-02-26T02:59:34;3.97;;;1.70;;
15331;SDS011;7766;51.534;6.722;2024-02-26T03:02:00;5.87;;;1.80;;
15331;SDS011;7766;51.534;6.722;2024-02-26T03:04:26;1.83;;;1.57;;
15331;SDS011;7766;51.534;6.722;2024-02-26T03:06:54;3.67;;;1.60;;
15331;SDS011;7766;51.534;6.722;2024-02-26T03:09:20;3.10;;;1.63;;
15331;SDS011;7766;51.534;6.722;2024-02-26T03:11:46;2.17;;;1.50;;
15331;SDS011;7766;51.534;6.722;2024-02-26T03:14:12;1.90;;;1.70;;
15331;SDS011;7766;51.534;6.722;2024-02-26T03:16:37;2.27;;;1.57;;
15331;SDS011;7766;51.534;6.722;2024-02-26T03:19:03;3.03;;;1.47;;
15331;SDS011;7766;51.534;6.722;2024-02-26T03:21:28;2.10;;;1.57;;
15331;SDS011;7766;51.534;6.722;2024-02-26T03:23:54;3.20;;;1.70;;
15331;SDS011;7766;51.534;6.722;2024-02-26T03:26:20;1.57;;;1.47;;
15331;SDS011;7766;51.534;6.722;2024-02-26T03:28:47;2.83;;;1.80;;
15331;SDS011;7766;51.534;6.722;2024-02-26T03:31:12;3.33;;;2.10;;
15331;SDS011;7766;51.534;6.722;2024-02-26T03:33:38;6.03;;;1.90;;
15331;SDS011;7766;51.534;6.722;2024-02-26T03:36:04;2.87;;;1.77;;
15331;SDS011;7766;51.534;6.722;2024-02-26T03:38:30;2.37;;;1.77;;
15331;SDS011;7766;51.534;6.722;2024-02-26T03:40:56;3.87;;;1.70;;
15331;SDS011;7766;51.534;6.722;2024-02-26T03:43:22;10.50;;;1.73;;
15331;SDS011;7766;51.534;6.722;2024-02-26T03:45:48;1.97;;;1.73;;
15331;SDS011;7766;51.534;6.722;2024-02-26T03:48:14;1.93;;;1.57;;
15331;SDS011;7766;51.534;6.722;2024-02-26T03:50:39;2.20;;;1.87;;
15331;SDS011;7766;51.534;6.722;2024-02-26T03:53:05;3.50;;;1.87;;
15331;SDS011;7766;51.534;6.722;2024-02-26T03:55:33;4.23;;;1.70;;
15331;SDS011;7766;51.534;6.722;2024-02-26T03:57:59;1.70;;;1.60;;
15331;SDS011;7766;51.534;6.722;2024-02-26T04:00:25;2.70;;;1.97;;
15331;SDS011;7766;51.534;6.722;2024-02-26T04:02:54;3.90;;;1.80;;
15331;SDS011;7766;51.534;6.722;2024-02-26T04:05:20;2.30;;;1.63;;
15331;SDS011;7766;51.534;6.722;2024-02-26T04:07:46;2.93;;;1.97;;
15331;SDS011;7766;51.534;6.722;2024-02-26T04:10:12;2.47;;;2.10;;
15331;SDS011;7766;51.534;6.722;2024-02-26T04:12:39;1.97;;;1.77;;
15331;SDS011;7766;51.534;6.722;2024-02-26T04:15:06;2.00;;;1.60;;
15331;SDS011;7766;51.534;6.722;2024-02-26T04:17:35;3.00;;;1.90;;
15331;SDS011;7766;51.534;6.722;2024-02-26T04:20:02;3.53;;;1.80;;
15331;SDS011;7766;51.534;6.722;2024-02-26T04:22:28;2.70;;;1.90;;
15331;SDS011;7766;51.534;6.722;2024-02-26T04:24:54;2.43;;;2.07;;
15331;SDS011;7766;51.534;6.722;2024-02-26T04:27:20;3.03;;;2.00;;
15331;SDS011;7766;51.534;6.722;2024-02-26T04:29:45;2.33;;;1.83;;
15331;SDS011;7766;51.534;6.722;2024-02-26T04:32:11;1.77;;;1.67;;
15331;SDS011;7766;51.534;6.722;2024-02-26T04:34:36;4.40;;;1.90;;
15331;SDS011;7766;51.534;6.722;2024-02-26T04:37:02;2.37;;;2.03;;
15331;SDS011;7766;51.534;6.722;2024-02-26T04:39:28;3.73;;;1.60;;
15331;SDS011;7766;51.534;6.722;2024-02-26T04:41:54;1.90;;;1.70;;
15331;SDS011;7766;51.534;6.722;2024-02-26T04:44:20;1.83;;;1.63;;
15331;SDS011;7766;51.534;6.722;2024-02-26T04:46:46;2.17;;;1.90;;
15331;SDS011;7766;51.534;6.722;2024-02-26T04:49:12;4.63;;;1.73;;
15331;SDS011;7766;51.534;6.722;2024-02-26T04:51:38;1.87;;;1.50;;
15331;SDS011;7766;51.534;6.722;2024-02-26T04:54:04;2.33;;;1.70;;
15331;SDS011;7766;51.534;6.722;2024-02-26T04:56:30;2.00;;;1.80;;
15331;SDS011;7766;51.534;6.722;2024-02-26T04:58:56;2.53;;;1.80;;
15331;SDS011;7766;51.534;6.722;2024-02-26T05:01:21;2.00;;;1.73;;
15331;SDS011;7766;51.534;6.722;2024-02-26T05:03:47;2.07;;;1.73;;
15331;SDS011;7766;51.534;6.722;2024-02-26T05:06:14;1.67;;;1.57;;
15331;SDS011;7766;51.534;6.722;2024-02-26T05:08:40;2.20;;;1.67;;
15331;SDS011;7766;51.534;6.722;2024-02-26T05:11:06;1.73;;;1.53;;
15331;SDS011;7766;51.534;6.722;2024-02-26T05:13:32;2.77;;;1.60;;
15331;SDS011;7766;51.534;6.722;2024-02-26T05:15:57;1.43;;;1.30;;
15331;SDS011;7766;51.534;6.722;2024-02-26T05:18:23;2.13;;;1.60;;
15331;SDS011;7766;51.534;6.722;2024-02-26T05:20:49;2.13;;;1.70;;
15331;SDS011;7766;51.534;6.722;2024-02-26T05:23:15;2.33;;;1.90;;
15331;SDS011;7766;51.534;6.722;2024-02-26T05:25:41;2.60;;;1.50;;
15331;SDS011;7766;51.534;6.722;2024-02-26T05:28:07;2.33;;;1.67;;
15331;SDS011;7766;51.534;6.722;2024-02-26T05:30:33;2.13;;;1.60;;
15331;SDS011;7766;51.534;6.722;2024-02-26T05:32:59;2.60;;;1.77;;
15331;SDS011;7766;51.534;6.722;2024-02-26T05:35:25;2.17;;;1.67;;
15331;SDS011;7766;51.534;6.722;2024-02-26T05:37:51;2.30;;;1.70;;
15331;SDS011;7766;51.534;6.722;2024-02-26T05:40:16;3.80;;;1.70;;
15331;SDS011;7766;51.534;6.722;2024-02-26T05:42:43;3.47;;;2.00;;
15331;SDS011;7766;51.534;6.722;2024-02-26T05:45:11;2.80;;;2.03;;
15331;SDS011;7766;51.534;6.722;2024-02-26T05:47:37;2.60;;;2.17;;
15331;SDS011;7766;51.534;6.722;2024-02-26T05:50:10;4.03;;;1.87;;
15331;SDS011;7766;51.534;6.722;2024-02-26T05:52:36;4.17;;;1.97;;
15331;SDS011;7766;51.534;6.722;2024-02-26T05:55:03;2.80;;;2.00;;
15331;SDS011;7766;51.534;6.722;2024-02-26T05:57:30;2.30;;;2.10;;
15331;SDS011;7766;51.534;6.722;2024-02-26T05:59:56;3.40;;;2.40;;
15331;SDS011;7766;51.534;6.722;2024-02-26T06:02:25;4.03;;;2.17;;
15331;SDS011;7766;51.534;6.722;2024-02-26T06:04:51;2.20;;;1.97;;
15331;SDS011;7766;51.534;6.722;2024-02-26T06:07:17;3.03;;;2.27;;
15331;SDS011;7766;51.534;6.722;2024-02-26T06:09:43;2.53;;;1.97;;
15331;SDS011;7766;51.534;6.722;2024-02-26T06:12:09;2.77;;;2.13;;
15331;SDS011;7766;51.534;6.722;2024-02-26T06:14:35;2.90;;;2.23;;
15331;SDS011;7766;51.534;6.722;2024-02-26T06:17:01;2.93;;;2.30;;
15331;SDS011;7766;51.534;6.722;2024-02-26T06:19:27;2.90;;;2.00;;
15331;SDS011;7766;51.534;6.722;2024-02-26T06:21:52;2.73;;;2.20;;
15331;SDS011;7766;51.534;6.722;2024-02-26T06:24:18;3.37;;;2.23;;
15331;SDS011;7766;51.534;6.722;2024-02-26T06:26:47;2.97;;;2.10;;
15331;SDS011;7766;51.534;6.722;2024-02-26T06:29:13;2.33;;;1.80;;
15331;SDS011;7766;51.534;6.722;2024-02-26T06:31:39;2.60;;;2.00;;
15331;SDS011;7766;51.534;6.722;2024-02-26T06:34:04;2.13;;;1.77;;
15331;SDS011;7766;51.534;6.722;2024-02-26T06:36:30;2.10;;;1.83;;
15331;SDS011;7766;51.534;6.722;2024-02-26T06:38:57;2.90;;;2.00;;
15331;SDS011;7766;51.534;6.722;2024-02-26T06:41:23;2.90;;;1.90;;
15331;SDS011;7766;51.534;6.722;2024-02-26T06:43:53;3.63;;;2.30;;
15331;SDS011;7766;51.534;6.722;2024-02-26T06:46:18;4.00;;;2.47;;
15331;SDS011;7766;51.534;6.722;2024-02-26T06:48:44;4.73;;;2.73;;
15331;SDS011;7766;51.534;6.722;2024-02-26T06:51:10;10.73;;;6.17;;
15331;SDS011;7766;51.534;6.722;2024-02-26T06:53:35;18.13;;;9.37;;
15331;SDS011;7766;51.534;6.722;2024-02-26T06:56:01;5.07;;;3.40;;
15331;SDS011;7766;51.534;6.722;2024-02-26T06:58:27;3.20;;;2.33;;
15331;SDS011;7766;51.534;6.722;2024-02-26T07:00:53;2.87;;;2.33;;
15331;SDS011;7766;51.534;6.722;2024-02-26T07:03:18;2.70;;;2.07;;
15331;SDS011;7766;51.534;6.722;2024-02-26T07:05:44;2.73;;;2.10;;
15331;SDS011;7766;51.534;6.722;2024-02-26T07:08:11;2.63;;;1.83;;
15331;SDS011;7766;51.534;6.722;2024-02-26T07:10:37;2.93;;;2.20;;
15331;SDS011;7766;51.534;6.722;2024-02-26T07:13:02;2.50;;;2.30;;
15331;SDS011;7766;51.534;6.722;2024-02-26T07:15:28;2.53;;;1.73;;
15331;SDS011;7766;51.534;6.722;2024-02-26T07:17:54;3.40;;;2.17;;
15331;SDS011;7766;51.534;6.722;2024-02-26T07:20:20;3.23;;;2.00;;
15331;SDS011;7766;51.534;6.722;2024-02-26T07:22:46;2.10;;;1.90;;
15331;SDS011;7766;51.534;6.722;2024-02-26T07:25:12;3.63;;;2.20;;
15331;SDS011;7766;51.534;6.722;2024-02-26T07:27:38;2.13;;;1.83;;
15331;SDS011;7766;51.534;6.722;2024-02-26T07:30:05;2.43;;;1.90;;
15331;SDS011;7766;51.534;6.722;2024-02-26T07:32:33;1.90;;;1.60;;
15331;SDS011;7766;51.534;6.722;2024-02-26T07:34:58;2.53;;;1.80;;
15331;SDS011;7766;51.534;6.722;2024-02-26T07:37:24;2.77;;;2.00;;
15331;SDS011;7766;51.534;6.722;2024-02-26T07:39:50;2.43;;;1.77;;
15331;SDS011;7766;51.534;6.722;2024-02-26T07:42:15;1.83;;;1.67;;
15331;SDS011;7766;51.534;6.722;2024-02-26T07:44:41;1.77;;;1.57;;
15331;SDS011;7766;51.534;6.722;2024-02-26T07:47:08;1.93;;;1.73;;
15331;SDS011;7766;51.534;6.722;2024-02-26T07:49:34;3.03;;;2.27;;
15331;SDS011;7766;51.534;6.722;2024-02-26T07:52:00;2.20;;;2.00;;
15331;SDS011;7766;51.534;6.722;2024-02-26T07:54:26;2.37;;;1.70;;
15331;SDS011;7766;51.534;6.722;2024-02-26T07:56:51;2.43;;;2.17;;
15331;SDS011;7766;51.534;6.722;2024-02-26T07:59:17;2.60;;;1.90;;
15331;SDS011;7766;51.534;6.722;2024-02-26T08:01:43;2.20;;;1.93;;
15331;SDS011;7766;51.534;6.722;2024-02-26T08:04:09;2.07;;;1.87;;
15331;SDS011;7766;51.534;6.722;2024-02-26T08:06:34;1.90;;;1.70;;
15331;SDS011;7766;51.534;6.722;2024-02-26T08:09:00;2.73;;;2.03;;
15331;SDS011;7766;51.534;6.722;2024-02-26T08:11:26;2.40;;;1.77;;
15331;SDS011;7766;51.534;6.722;2024-02-26T08:13:53;1.83;;;1.70;;
15331;SDS011;7766;51.534;6.722;2024-02-26T08:16:18;2.93;;;1.90;;
15331;SDS011;7766;51.534;6.722;2024-02-26T08:18:44;4.20;;;2.10;;
15331;SDS011;7766;51.534;6.722;2024-02-26T08:21:10;2.13;;;1.83;;
15331;SDS011;7766;51.534;6.722;2024-02-26T08:23:37;2.53;;;1.87;;
15331;SDS011;7766;51.534;6.722;2024-02-26T08:26:03;3.47;;;1.90;;
15331;SDS011;7766;51.534;6.722;2024-02-26T08:28:32;2.40;;;1.70;;
15331;SDS011;7766;51.534;6.722;2024-02-26T08:30:57;4.87;;;1.80;;
15331;SDS011;7766;51.534;6.722;2024-02-26T08:33:23;2.93;;;2.00;;
15331;SDS011;7766;51.534;6.722;2024-02-26T08:35:49;2.57;;;1.90;;
15331;SDS011;7766;51.534;6.722;2024-02-26T08:38:14;2.13;;;1.63;;
15331;SDS011;7766;51.534;6.722;2024-02-26T08:40:40;2.33;;;1.97;;
15331;SDS011;7766;51.534;6.722;2024-02-26T08:43:06;2.13;;;1.93;;
15331;SDS011;7766;51.534;6.722;2024-02-26T08:45:33;4.07;;;1.57;;
15331;SDS011;7766;51.534;6.722;2024-02-26T08:47:59;3.40;;;1.97;;
15331;SDS011;7766;51.534;6.722;2024-02-26T08:50:24;3.33;;;1.77;;
15331;SDS011;7766;51.534;6.722;2024-02-26T08:52:50;1.83;;;1.53;;
15331;SDS011;7766;51.534;6.722;2024-02-26T08:55:18;3.53;;;1.93;;
15331;SDS011;7766;51.534;6.722;2024-02-26T08:57:44;3.17;;;1.90;;
15331;SDS011;7766;51.534;6.722;2024-02-26T09:00:10;2.93;;;1.90;;
15331;SDS011;7766;51.534;6.722;2024-02-26T09:02:36;2.93;;;2.00;;
15331;SDS011;7766;51.534;6.722;2024-02-26T09:05:04;4.10;;;2.30;;
15331;SDS011;7766;51.534;6.722;2024-02-26T09:07:30;2.43;;;1.70;;
15331;SDS011;7766;51.534;6.722;2024-02-26T09:09:56;2.70;;;2.00;;
15331;SDS011;7766;51.534;6.722;2024-02-26T09:12:22;1.93;;;1.73;;
15331;SDS011;7766;51.534;6.722;2024-02-26T09:14:48;4.07;;;1.57;;
15331;SDS011;7766;51.534;6.722;2024-02-26T09:17:13;2.23;;;1.80;;
15331;SDS011;7766;51.534;6.722;2024-02-26T09:19:39;2.07;;;1.77;;
15331;SDS011;7766;51.534;6.722;2024-02-26T09:22:07;3.33;;;1.93;;
15331;SDS011;7766;51.534;6.722;2024-02-26T09:24:33;2.90;;;2.10;;
15331;SDS011;7766;51.534;6.722;2024-02-26T09:26:59;4.83;;;3.03;;
15331;SDS011;7766;51.534;6.722;2024-02-26T09:29:24;6.83;;;3.83;;
15331;SDS011;7766;51.534;6.722;2024-02-26T09:31:51;3.00;;;2.57;;
15331;SDS011;7766;51.534;6.722;2024-02-26T09:34:17;2.90;;;2.40;;
15331;SDS011;7766;51.534;6.722;2024-02-26T09:36:43;1.87;;;1.67;;
15331;SDS011;7766;51.534;6.722;2024-02-26T09:39:09;6.47;;;1.80;;
15331;SDS011;7766;51.534;6.722;2024-02-26T09:41:36;3.27;;;1.73;;
15331;SDS011;7766;51.534;6.722;2024-02-26T09:44:02;2.20;;;2.00;;
15331;SDS011;7766;51.534;6.722;2024-02-26T09:46:28;2.30;;;1.90;;
15331;SDS011;7766;51.534;6.722;2024-02-26T09:48:55;3.23;;;2.30;;
15331;SDS011;7766;51.534;6.722;2024-02-26T09:51:22;3.97;;;2.40;;
15331;SDS011;7766;51.534;6.722;2024-02-26T09:53:49;3.97;;;2.60;;
15331;SDS011;7766;51.534;6.722;2024-02-26T09:56:16;2.53;;;2.10;;
15331;SDS011;7766;51.534;6.722;2024-02-26T09:58:42;3.23;;;2.10;;
15331;SDS011;7766;51.534;6.722;2024-02-26T10:01:13;2.47;;;2.27;;
15331;SDS011;7766;51.534;6.722;2024-02-26T10:03:41;2.30;;;1.90;;
15331;SDS011;7766;51.534;6.722;2024-02-26T10:06:09;4.60;;;2.23;;
15331;SDS011;7766;51.534;6.722;2024-02-26T10:08:35;3.73;;;2.33;;
15331;SDS011;7766;51.534;6.722;2024-02-26T10:11:04;4.13;;;2.30;;
15331;SDS011;7766;51.534;6.722;2024-02-26T10:13:31;4.00;;;2.57;;
15331;SDS011;7766;51.534;6.722;2024-02-26T10:15:57;3.60;;;2.20;;
15331;SDS011;7766;51.534;6.722;2024-02-26T10:18:23;4.97;;;2.47;;
15331;SDS011;7766;51.534;6.722;2024-02-26T10:20:59;4.67;;;2.10;;
15331;SDS011;7766;51.534;6.722;2024-02-26T10:23:26;3.00;;;2.40;;
15331;SDS011;7766;51.534;6.722;2024-02-26T10:25:53;4.87;;;2.27;;
15331;SDS011;7766;51.534;6.722;2024-02-26T10:28:20;3.53;;;2.30;;
15331;SDS011;7766;51.534;6.722;2024-02-26T10:30:45;2.80;;;2.30;;
15331;SDS011;7766;51.534;6.722;2024-02-26T10:33:11;2.90;;;2.30;;
15331;SDS011;7766;51.534;6.722;2024-02-26T10:35:38;3.80;;;2.40;;
15331;SDS011;7766;51.534;6.722;2024-02-26T10:38:06;2.40;;;2.13;;
15331;SDS011;7766;51.534;6.722;2024-02-26T10:40:32;3.23;;;2.13;;
15331;SDS011;7766;51.534;6.722;2024-02-26T10:42:58;4.80;;;2.50;;
15331;SDS011;7766;51.534;6.722;2024-02-26T10:45:24;3.83;;;2.40;;
15331;SDS011;7766;51.534;6.722;2024-02-26T10:47:50;2.70;;;2.20;;
15331;SDS011;7766;51.534;6.722;2024-02-26T10:50:15;2.77;;;2.20;;
15331;SDS011;7766;51.534;6.722;2024-02-26T10:52:42;3.33;;;2.70;;
15331;SDS011;7766;51.534;6.722;2024-02-26T10:55:08;3.53;;;2.47;;
15331;SDS011;7766;51.534;6.722;2024-02-26T10:57:40;3.07;;;2.43;;
15331;SDS011;7766;51.534;6.722;2024-02-26T11:00:08;3.03;;;2.47;;
15331;SDS011;7766;51.534;6.722;2024-02-26T11:02:37;2.43;;;2.23;;
15331;SDS011;7766;51.534;6.722;2024-02-26T11:05:05;3.27;;;2.40;;
15331;SDS011;7766;51.534;6.722;2024-02-26T11:07:32;4.03;;;2.50;;
15331;SDS011;7766;51.534;6.722;2024-02-26T11:09:59;2.73;;;2.30;;
15331;SDS011;7766;51.534;6.722;2024-02-26T11:12:25;3.17;;;2.77;;
15331;SDS011;7766;51.534;6.722;2024-02-26T11:14:53;3.10;;;2.60;;
15331;SDS011;7766;51.534;6.722;2024-02-26T11:17:21;4.30;;;2.90;;
15331;SDS011;7766;51.534;6.722;2024-02-26T11:19:48;7.50;;;3.10;;
15331;SDS011;7766;51.534;6.722;2024-02-26T11:22:15;3.47;;;2.70;;
15331;SDS011;7766;51.534;6.722;2024-02-26T11:24:40;4.33;;;3.03;;
15331;SDS011;7766;51.534;6.722;2024-02-26T11:27:07;3.67;;;3.10;;
15331;SDS011;7766;51.534;6.722;2024-02-26T11:29:48;4.87;;;3.10;;
15331;SDS011;7766;51.534;6.722;2024-02-26T11:32:17;6.33;;;3.90;;
15331;SDS011;7766;51.534;6.722;2024-02-26T11:34:42;6.03;;;3.50;;
15331;SDS011;7766;51.534;6.722;2024-02-26T11:37:13;4.37;;;3.53;;
15331;SDS011;7766;51.534;6.722;2024-02-26T11:39:40;5.90;;;4.17;;
15331;SDS011;7766;51.534;6.722;2024-02-26T11:42:07;5.93;;;4.30;;
15331;SDS011;7766;51.534;6.722;2024-02-26T11:44:34;5.27;;;4.00;;
15331;SDS011;7766;51.534;6.722;2024-02-26T11:47:10;4.97;;;3.80;;
15331;SDS011;7766;51.534;6.722;2024-02-26T11:49:47;5.07;;;3.90;;
15331;SDS011;7766;51.534;6.722;2024-02-26T11:52:13;8.63;;;5.77;;
15331;SDS011;7766;51.534;6.722;2024-02-26T11:57:21;10.60;;;5.33;;
15331;SDS011;7766;51.534;6.722;2024-02-26T11:59:53;6.57;;;4.67;;
15331;SDS011;7766;51.534;6.722;2024-02-26T12:02:39;7.97;;;4.70;;
15331;SDS011;7766;51.534;6.722;2024-02-26T12:05:19;6.33;;;5.10;;
15331;SDS011;7766;51.534;6.722;2024-02-26T12:07:49;5.80;;;4.40;;
15331;SDS011;7766;51.534;6.722;2024-02-26T12:13:00;7.17;;;4.47;;
15331;SDS011;7766;51.534;6.722;2024-02-26T12:15:59;6.97;;;4.60;;
15331;SDS011;7766;51.534;6.722;2024-02-26T12:18:18;6.93;;;5.00;;
15331;SDS011;7766;51.534;6.722;2024-02-26T12:20:45;5.97;;;4.23;;
15331;SDS011;7766;51.534;6.722;2024-02-26T12:23:15;7.37;;;4.33;;
15331;SDS011;7766;51.534;6.722;2024-02-26T12:25:44;8.07;;;4.37;;
15331;SDS011;7766;51.534;6.722;2024-02-26T12:28:13;6.23;;;4.33;;
15331;SDS011;7766;51.534;6.722;2024-02-26T12:30:39;7.13;;;4.60;;
15331;SDS011;7766;51.534;6.722;2024-02-26T12:33:05;7.63;;;4.93;;
15331;SDS011;7766;51.534;6.722;2024-02-26T12:35:33;6.40;;;4.80;;
15331;SDS011;7766;51.534;6.722;2024-02-26T12:38:00;7.23;;;4.60;;
15331;SDS011;7766;51.534;6.722;2024-02-26T12:40:26;6.50;;;4.30;;
15331;SDS011;7766;51.534;6.722;2024-02-26T12:42:53;4.87;;;4.37;;
15331;SDS011;7766;51.534;6.722;2024-02-26T12:45:20;6.13;;;4.20;;
15331;SDS011;7766;51.534;6.722;2024-02-26T12:47:46;4.93;;;4.30;;
15331;SDS011;7766;51.534;6.722;2024-02-26T12:50:12;5.57;;;4.57;;
15331;SDS011;7766;51.534;6.722;2024-02-26T12:52:39;5.27;;;3.97;;
15331;SDS011;7766;51.534;6.722;2024-02-26T12:55:09;6.90;;;4.37;;
15331;SDS011;7766;51.534;6.722;2024-02-26T12:57:38;8.03;;;4.43;;
15331;SDS011;7766;51.534;6.722;2024-02-26T13:00:06;6.33;;;4.50;;
15331;SDS011;7766;51.534;6.722;2024-02-26T13:02:35;5.27;;;4.20;;
15331;SDS011;7766;51.534;6.722;2024-02-26T13:05:02;5.27;;;3.90;;
15331;SDS011;7766;51.534;6.722;2024-02-26T13:07:29;5.60;;;4.23;;
15331;SDS011;7766;51.534;6.722;2024-02-26T13:09:55;5.30;;;4.10;;
15331;SDS011;7766;51.534;6.722;2024-02-26T13:12:21;5.90;;;4.20;;
15331;SDS011;7766;51.534;6.722;2024-02-26T13:14:47;6.00;;;4.03;;
15331;SDS011;7766;51.534;6.722;2024-02-26T13:17:13;10.43;;;6.60;;
15331;SDS011;7766;51.534;6.722;2024-02-26T13:19:48;5.13;;;4.10;;
15331;SDS011;7766;51.534;6.722;2024-02-26T13:22:15;3.83;;;3.43;;
15331;SDS011;7766;51.534;6.722;2024-02-26T13:24:41;5.60;;;3.73;;
15331;SDS011;7766;51.534;6.722;2024-02-26T13:27:07;4.13;;;3.10;;
15331;SDS011;7766;51.534;6.722;2024-02-26T13:29:33;5.13;;;3.60;;
15331;SDS011;7766;51.534;6.722;2024-02-26T13:32:00;9.67;;;5.43;;
15331;SDS011;7766;51.534;6.722;2024-02-26T13:34:28;3.73;;;3.27;;
15331;SDS011;7766;51.534;6.722;2024-02-26T13:36:55;5.37;;;3.23;;
15331;SDS011;7766;51.534;6.722;2024-02-26T13:39:24;3.67;;;2.90;;
15331;SDS011;7766;51.534;6.722;2024-02-26T13:41:51;3.43;;;2.93;;
15331;SDS011;7766;51.534;6.722;2024-02-26T13:44:18;3.33;;;2.80;;
15331;SDS011;7766;51.534;6.722;2024-02-26T13:46:44;3.40;;;2.80;;
15331;SDS011;7766;51.534;6.722;2024-02-26T13:49:10;3.00;;;2.70;;
15331;SDS011;7766;51.534;6.722;2024-02-26T13:51:36;3.00;;;2.70;;
15331;SDS011;7766;51.534;6.722;2024-02-26T13:54:02;4.07;;;2.80;;
15331;SDS011;7766;51.534;6.722;2024-02-26T13:56:28;3.20;;;2.90;;
15331;SDS011;7766;51.534;6.722;2024-02-26T13:58:55;4.70;;;2.77;;
15331;SDS011;7766;51.534;6.722;2024-02-26T14:01:20;3.20;;;2.90;;
15331;SDS011;7766;51.534;6.722;2024-02-26T14:03:46;3.33;;;2.90;;
15331;SDS011;7766;51.534;6.722;2024-02-26T14:06:12;3.00;;;2.67;;
15331;SDS011;7766;51.534;6.722;2024-02-26T14:08:38;4.63;;;2.90;;
15331;SDS011;7766;51.534;6.722;2024-02-26T14:11:04;4.03;;;2.70;;
15331;SDS011;7766;51.534;6.722;2024-02-26T14:13:29;2.70;;;2.50;;
15331;SDS011;7766;51.534;6.722;2024-02-26T14:15:56;3.80;;;2.40;;
15331;SDS011;7766;51.534;6.722;2024-02-26T14:18:21;3.43;;;2.60;;
15331;SDS011;7766;51.534;6.722;2024-02-26T14:20:48;3.80;;;2.83;;
15331;SDS011;7766;51.534;6.722;2024-02-26T14:23:14;3.20;;;2.80;;
15331;SDS011;7766;51.534;6.722;2024-02-26T14:25:39;3.77;;;2.90;;
15331;SDS011;7766;51.534;6.722;2024-02-26T14:28:05;3.50;;;3.20;;
15331;SDS011;7766;51.534;6.722;2024-02-26T14:30:31;3.67;;;2.90;;
15331;SDS011;7766;51.534;6.722;2024-02-26T14:32:57;4.07;;;3.10;;
15331;SDS011;7766;51.534;6.722;2024-02-26T14:35:23;3.83;;;3.03;;
15331;SDS011;7766;51.534;6.722;2024-02-26T14:37:49;3.87;;;2.77;;
15331;SDS011;7766;51.534;6.722;2024-02-26T14:40:16;4.37;;;3.20;;
15331;SDS011;7766;51.534;6.722;2024-02-26T14:42:43;5.73;;;3.17;;
15331;SDS011;7766;51.534;6.722;2024-02-26T14:45:09;3.47;;;3.13;;
15331;SDS011;7766;51.534;6.722;2024-02-26T14:47:36;3.37;;;3.07;;
15331;SDS011;7766;51.534;6.722;2024-02-26T14:50:02;4.47;;;3.40;;
15331;SDS011;7766;51.534;6.722;2024-02-26T14:52:28;3.53;;;3.17;;
15331;SDS011;7766;51.534;6.722;2024-02-26T14:54:53;4.10;;;3.27;;
15331;SDS011;7766;51.534;6.722;2024-02-26T14:57:19;4.60;;;3.17;;
15331;SDS011;7766;51.534;6.722;2024-02-26T14:59:45;5.10;;;3.30;;
15331;SDS011;7766;51.534;6.722;2024-02-26T15:02:10;5.60;;;3.50;;